Time;durP1;ratioP1;P1;durP2;ratioP2;P2;SDS_P1;SDS_P2;PMS_P1;PMS_P2;Temp;Humidity;BMP_temperature;BMP_pressure;BME280_temperature;BME280_humidity;BME280_pressure;Samples;Min_cycle;Max_cycle;Signal;HPM_P1;HPM_P2
2021/09/08 00:00:31;;;;;;;7.68;4.22;;;16.80;66.70;;;;;;5072122;28;20058;-71
2021/09/08 00:02:59;;;;;;;7.95;3.42;;;16.80;66.70;;;;;;5071970;28;20048;-70
2021/09/08 00:05:25;;;;;;;8.35;3.67;;;16.70;66.80;;;;;;5072090;28;20060;-71
2021/09/08 00:07:51;;;;;;;12.48;3.80;;;16.70;67.10;;;;;;5071992;28;20024;-71
2021/09/08 00:10:16;;;;;;;;;;;16.70;67.30;;;;;;5072247;28;20473;-71
2021/09/08 00:12:42;;;;;;;11.25;4.32;;;16.70;67.60;;;;;;5071854;28;19908;-71
2021/09/08 00:15:09;;;;;;;;;;;16.60;67.60;;;;;;5072305;28;20032;-72
2021/09/08 00:17:35;;;;;;;5.55;3.78;;;16.60;67.70;;;;;;5070449;28;20364;-74
2021/09/08 00:20:01;;;;;;;7.53;3.92;;;16.50;67.60;;;;;;5070327;28;20055;-71
2021/09/08 00:22:26;;;;;;;11.05;3.67;;;16.50;67.80;;;;;;5071615;28;20020;-72
2021/09/08 00:24:52;;;;;;;12.02;3.78;;;16.60;67.70;;;;;;5071566;28;20512;-71
2021/09/08 00:27:18;;;;;;;10.63;3.40;;;16.70;67.50;;;;;;5071426;28;20020;-71
2021/09/08 00:29:44;;;;;;;11.13;3.60;;;17.00;66.10;;;;;;5071593;28;20043;-71
2021/09/08 00:32:09;;;;;;;;;;;17.10;66.30;;;;;;5070697;28;20020;-71
2021/09/08 00:34:35;;;;;;;9.15;3.85;;;17.30;64.70;;;;;;5071452;28;19908;-71
2021/09/08 00:37:01;;;;;;;12.27;3.58;;;17.40;64.20;;;;;;5071571;28;20029;-72
2021/09/08 00:39:27;;;;;;;10.20;3.83;;;17.60;63.70;;;;;;5069941;28;20037;-71
2021/09/08 00:41:52;;;;;;;7.30;3.85;;;17.80;63.10;;;;;;5071323;28;20485;-71
2021/09/08 00:44:18;;;;;;;9.93;3.85;;;17.90;62.70;;;;;;5071368;28;20024;-72
2021/09/08 00:46:45;;;;;;;6.15;3.72;;;17.80;63.30;;;;;;5071416;28;20077;-71
2021/09/08 00:49:11;;;;;;;8.30;3.95;;;17.80;62.60;;;;;;5070031;28;20039;-71
2021/09/08 00:51:38;;;;;;;9.23;4.40;;;17.80;62.80;;;;;;5070562;28;20154;-71
2021/09/08 00:54:15;;;;;;;7.13;3.63;;;17.70;63.40;;;;;;5071078;28;20125;-72
2021/09/08 00:56:42;;;;;;;9.25;3.47;;;17.50;63.80;;;;;;5071064;28;20032;-71
2021/09/08 00:59:08;;;;;;;9.15;3.70;;;17.30;64.20;;;;;;5069674;28;20052;-71
2021/09/08 01:01:34;;;;;;;5.50;3.17;;;17.20;64.80;;;;;;5071091;28;20103;-72
2021/09/08 01:04:00;;;;;;;8.75;3.47;;;17.10;65.10;;;;;;5070858;28;20553;-71
2021/09/08 01:06:25;;;;;;;7.00;4.00;;;16.90;65.80;;;;;;5070793;28;20396;-71
2021/09/08 01:08:52;;;;;;;;;;;16.70;66.70;;;;;;5070146;28;20393;-72
2021/09/08 01:11:18;;;;;;;9.57;4.93;;;16.60;67.10;;;;;;5070557;28;19912;-72
2021/09/08 01:13:43;;;;;;;7.78;4.75;;;16.50;68.20;;;;;;5070640;28;20254;-71
2021/09/08 01:16:09;;;;;;;;;;;16.30;69.20;;;;;;5069831;28;20021;-71
2021/09/08 01:18:36;;;;;;;8.90;4.45;;;16.10;70.40;;;;;;5070781;28;19913;-72
2021/09/08 01:21:03;;;;;;;10.77;4.32;;;15.90;71.20;;;;;;5070731;28;20043;-72
2021/09/08 01:23:29;;;;;;;12.18;4.72;;;15.80;70.80;;;;;;5070345;28;20593;-71
2021/09/08 01:25:55;;;;;;;15.63;5.68;;;15.70;71.80;;;;;;5070453;28;20032;-71
2021/09/08 01:28:21;;;;;;;;;;;15.70;72.60;;;;;;5071027;28;20409;-71
2021/09/08 01:30:52;;;;;;;11.13;5.25;;;15.50;72.50;;;;;;5069127;28;19915;-71
2021/09/08 01:33:18;;;;;;;6.63;4.07;;;15.50;72.40;;;;;;5070165;28;20047;-71
2021/09/08 01:35:44;;;;;;;;;;;15.40;72.50;;;;;;5070979;28;20398;-71
2021/09/08 01:38:09;;;;;;;8.13;3.92;;;15.40;72.60;;;;;;5068882;28;19916;-72
2021/09/08 01:40:35;;;;;;;;;;;15.40;72.50;;;;;;5070668;28;20504;-71
2021/09/08 01:43:00;;;;;;;12.52;4.25;;;15.50;72.10;;;;;;5068843;28;19908;-72
2021/09/08 01:45:26;;;;;;;;;;;15.60;72.10;;;;;;5070468;28;20542;-71
2021/09/08 01:47:56;;;;;;;8.15;3.58;;;15.50;72.20;;;;;;5070219;28;19911;-71
2021/09/08 01:50:23;;;;;;;15.57;4.38;;;15.60;72.30;;;;;;5070248;28;20040;-72
2021/09/08 01:52:49;;;;;;;6.20;3.85;;;15.60;72.30;;;;;;5069955;28;20078;-72
2021/09/08 01:55:14;;;;;;;;;;;15.50;72.30;;;;;;5070122;28;20060;-71
2021/09/08 01:57:40;;;;;;;9.82;3.83;;;15.60;72.40;;;;;;5069925;28;19904;-71
2021/09/08 02:00:07;;;;;;;;;;;15.50;72.20;;;;;;5070214;28;20044;-71
2021/09/08 02:02:33;;;;;;;10.98;3.80;;;15.50;72.60;;;;;;5069868;28;19942;-71
2021/09/08 02:04:59;;;;;;;7.05;3.85;;;15.50;72.40;;;;;;5069668;28;20051;-71
2021/09/08 02:07:24;;;;;;;;;;;15.40;72.70;;;;;;5070134;28;20032;-71
2021/09/08 02:09:50;;;;;;;7.28;4.43;;;15.40;72.70;;;;;;5069653;28;19912;-71
2021/09/08 02:12:15;;;;;;;;;;;15.40;72.60;;;;;;5070070;28;20028;-71
2021/09/08 02:14:41;;;;;;;7.10;3.83;;;15.40;72.80;;;;;;5069522;28;19912;-72
2021/09/08 02:17:07;;;;;;;;;;;15.40;73.10;;;;;;5069416;28;20613;-72
2021/09/08 02:19:32;;;;;;;13.48;4.25;;;15.30;73.60;;;;;;5068073;28;20381;-71
2021/09/08 02:21:58;;;;;;;;;;;15.30;73.70;;;;;;5069818;28;20424;-71
2021/09/08 02:24:23;;;;;;;6.82;3.80;;;15.20;73.80;;;;;;5069443;28;19908;-71
2021/09/08 02:26:49;;;;;;;;;;;15.20;74.00;;;;;;5069837;28;20078;-71
2021/09/08 02:29:15;;;;;;;7.65;3.95;;;15.20;74.40;;;;;;5069228;28;20363;-73
2021/09/08 02:31:40;;;;;;;9.10;4.63;;;15.10;74.60;;;;;;5069214;28;20106;-71
2021/09/08 02:34:06;;;;;;;9.10;4.45;;;15.10;74.70;;;;;;5067870;28;20472;-71
2021/09/08 02:36:31;;;;;;;;;;;15.10;75.00;;;;;;5068281;28;20039;-71
2021/09/08 02:39:00;;;;;;;7.38;4.15;;;15.10;75.30;;;;;;5069151;28;19916;-72
2021/09/08 02:41:25;;;;;;;6.30;3.70;;;15.00;75.30;;;;;;5067647;28;20050;-72
2021/09/08 02:43:51;;;;;;;;;;;15.00;75.30;;;;;;5069468;28;20029;-72
2021/09/08 02:46:17;;;;;;;8.02;3.75;;;15.00;75.50;;;;;;5069007;28;19904;-72
2021/09/08 02:48:42;;;;;;;;;;;15.00;75.80;;;;;;5069691;28;20046;-71
2021/09/08 02:51:08;;;;;;;12.20;4.28;;;15.00;75.50;;;;;;5068792;28;20388;-71
2021/09/08 02:53:33;;;;;;;;;;;15.00;75.90;;;;;;5069038;28;20040;-71
2021/09/08 02:56:00;;;;;;;6.70;3.95;;;14.90;75.70;;;;;;5068499;28;19928;-71
2021/09/08 02:58:26;;;;;;;7.57;4.35;;;15.00;75.80;;;;;;5067429;28;20497;-71
2021/09/08 03:00:52;;;;;;;;;;;14.90;75.70;;;;;;5069205;28;20036;-71
2021/09/08 03:03:18;;;;;;;6.95;3.90;;;14.90;76.00;;;;;;5068436;28;20384;-71
2021/09/08 03:05:45;;;;;;;5.88;3.20;;;14.90;75.90;;;;;;5068708;28;20021;-71
2021/09/08 03:08:11;;;;;;;6.75;4.60;;;14.90;76.20;;;;;;5068637;28;20419;-70
2021/09/08 03:10:36;;;;;;;;;;;14.90;76.50;;;;;;5069052;28;20025;-72
2021/09/08 03:13:02;;;;;;;6.55;4.18;;;14.80;76.70;;;;;;5068691;28;19952;-70
2021/09/08 03:15:28;;;;;;;14.45;4.38;;;14.70;77.00;;;;;;5068285;28;20661;-71
2021/09/08 03:17:54;;;;;;;7.13;4.07;;;14.60;77.50;;;;;;5068560;28;20025;-71
2021/09/08 03:20:19;;;;;;;;;;;14.60;77.70;;;;;;5068919;28;20519;-71
2021/09/08 03:22:45;;;;;;;16.38;4.75;;;14.50;78.00;;;;;;5068532;28;19950;-71
2021/09/08 03:25:11;;;;;;;;;;;14.50;78.30;;;;;;5068907;28;20028;-71
2021/09/08 03:27:37;;;;;;;5.47;3.35;;;14.50;78.50;;;;;;5068599;28;20373;-71
2021/09/08 03:30:03;;;;;;;;;;;14.50;79.10;;;;;;5066807;28;20109;-71
2021/09/08 03:32:29;;;;;;;11.32;3.53;;;14.50;78.40;;;;;;5068329;28;20351;-71
2021/09/08 03:34:54;;;;;;;;;;;14.50;78.10;;;;;;5067358;28;20063;-71
2021/09/08 03:37:20;;;;;;;10.45;4.68;;;14.50;77.90;;;;;;5068326;28;19908;-72
2021/09/08 03:39:46;;;;;;;;;;;14.50;77.80;;;;;;5068814;28;20043;-71
2021/09/08 03:42:11;;;;;;;9.48;4.28;;;14.60;77.60;;;;;;5068263;28;19908;-72
2021/09/08 03:44:37;;;;;;;;;;;14.60;77.60;;;;;;5068623;28;20618;-72
2021/09/08 03:47:03;;;;;;;10.52;4.22;;;14.60;78.20;;;;;;5068339;28;19908;-71
2021/09/08 03:49:28;;;;;;;;;;;14.60;77.60;;;;;;5068408;28;20507;-71
2021/09/08 03:51:54;;;;;;;7.25;4.72;;;14.60;77.90;;;;;;5068308;28;20284;-71
2021/09/08 03:54:20;;;;;;;;;;;14.50;77.90;;;;;;5068635;28;20035;-72
2021/09/08 03:56:46;;;;;;;9.48;4.50;;;14.60;78.10;;;;;;5066879;28;20297;-71
2021/09/08 03:59:11;;;;;;;;;;;14.50;77.90;;;;;;5068557;28;20080;-72
2021/09/08 04:01:37;;;;;;;9.15;3.97;;;14.50;78.00;;;;;;5068061;28;19915;-71
2021/09/08 04:04:02;;;;;;;;;;;14.50;78.10;;;;;;5068431;28;20024;-72
2021/09/08 04:06:28;;;;;;;8.23;4.20;;;14.50;77.90;;;;;;5067956;28;19950;-70
2021/09/08 04:08:53;;;;;;;;;;;14.50;77.90;;;;;;5068465;28;20028;-72
2021/09/08 04:11:20;;;;;;;8.32;4.05;;;14.60;78.10;;;;;;5067703;28;19915;-72
2021/09/08 04:13:46;;;;;;;9.88;4.13;;;14.50;77.90;;;;;;5067771;28;20051;-72
2021/09/08 04:16:11;;;;;;;;;;;14.60;78.00;;;;;;5068339;28;20493;-72
2021/09/08 04:18:37;;;;;;;6.80;4.00;;;14.60;78.10;;;;;;5066345;28;19917;-72
2021/09/08 04:21:02;;;;;;;;;;;14.60;78.00;;;;;;5067635;28;20032;-72
2021/09/08 04:23:28;;;;;;;12.00;4.75;;;14.60;78.10;;;;;;5064350;28;19915;-72
2021/09/08 04:25:54;;;;;;;;;;;14.60;78.30;;;;;;5066295;28;20401;-72
2021/09/08 04:28:19;;;;;;;5.95;3.88;;;14.60;78.30;;;;;;5065874;28;19909;-73
2021/09/08 04:30:45;;;;;;;;;;;14.60;78.30;;;;;;5065094;28;20109;-72
2021/09/08 04:33:10;;;;;;;6.30;3.95;;;14.60;78.40;;;;;;5066165;28;19940;-72
2021/09/08 04:35:36;;;;;;;;;;;14.70;78.30;;;;;;5068249;28;20050;-71
2021/09/08 04:38:02;;;;;;;6.97;4.63;;;14.70;78.30;;;;;;5067557;28;20001;-72
2021/09/08 04:40:27;;;;;;;;;;;14.70;78.10;;;;;;5068440;28;20492;-72
2021/09/08 04:42:53;;;;;;;13.02;4.03;;;14.80;78.10;;;;;;5071335;28;19934;-72
2021/09/08 04:45:18;;;;;;;;;;;14.80;78.40;;;;;;5071450;28;20024;-72
2021/09/08 04:47:44;;;;;;;10.32;4.22;;;14.90;78.20;;;;;;5071295;28;20330;-72
2021/09/08 04:50:10;;;;;;;;;;;15.00;77.80;;;;;;5071478;28;20563;-72
2021/09/08 04:52:36;;;;;;;17.05;4.72;;;15.20;77.40;;;;;;5069688;28;20322;-71
2021/09/08 04:55:03;;;;;;;8.02;4.32;;;15.40;76.50;;;;;;5070926;28;20118;-72
2021/09/08 04:57:29;;;;;;;9.27;4.40;;;15.60;75.70;;;;;;5070737;28;20058;-71
2021/09/08 04:59:54;;;;;;;;;;;15.80;75.30;;;;;;5071317;28;20048;-71
2021/09/08 05:02:20;;;;;;;6.15;3.80;;;16.10;74.60;;;;;;5070942;28;19908;-73
2021/09/08 05:04:45;;;;;;;;;;;16.30;73.40;;;;;;5071386;28;20059;-72
2021/09/08 05:07:11;;;;;;;11.75;4.07;;;16.60;72.20;;;;;;5070775;28;19904;-72
2021/09/08 05:09:36;;;;;;;;;;;16.70;71.80;;;;;;5071169;28;20032;-71
2021/09/08 05:12:02;;;;;;;12.23;4.22;;;16.70;71.40;;;;;;5070753;28;19915;-72
2021/09/08 05:14:28;;;;;;;7.93;4.00;;;16.70;72.00;;;;;;5070833;28;20412;-73
2021/09/08 05:16:54;;;;;;;;;;;16.80;72.00;;;;;;5069872;28;20489;-72
2021/09/08 05:19:19;;;;;;;5.45;3.80;;;17.20;71.50;;;;;;5070524;28;20023;-72
2021/09/08 05:21:45;;;;;;;13.55;3.67;;;17.80;69.60;;;;;;5070814;28;20074;-72
2021/09/08 05:24:11;;;;;;;9.30;4.60;;;18.20;67.40;;;;;;5070422;28;20036;-72
2021/09/08 05:26:36;;;;;;;9.07;4.85;;;18.70;65.60;;;;;;5070574;28;20066;-72
2021/09/08 05:29:03;;;;;;;11.32;3.80;;;19.00;65.80;;;;;;5070639;28;20028;-72
2021/09/08 05:31:29;;;;;;;9.77;3.70;;;19.30;65.30;;;;;;5070441;28;20451;-72
2021/09/08 05:33:54;;;;;;;15.27;4.07;;;19.60;63.00;;;;;;5070269;28;20472;-73
2021/09/08 05:36:20;;;;;;;5.07;3.40;;;19.90;63.50;;;;;;5070565;28;20405;-72
2021/09/08 05:38:46;;;;;;;7.18;3.90;;;20.20;61.90;;;;;;5070126;28;20623;-73
2021/09/08 05:41:12;;;;;;;10.75;4.03;;;20.30;61.70;;;;;;5070106;28;20177;-72
2021/09/08 05:43:38;;;;;;;11.13;4.28;;;20.50;62.40;;;;;;5070290;28;20564;-72
2021/09/08 05:46:04;;;;;;;11.07;3.97;;;20.50;61.90;;;;;;5070023;28;20116;-74
2021/09/08 05:48:32;;;;;;;13.02;4.10;;;20.40;61.80;;;;;;5070390;28;20550;-73
2021/09/08 05:50:58;;;;;;;9.40;3.95;;;20.30;62.30;;;;;;5069679;28;20082;-73
2021/09/08 05:53:23;;;;;;;8.13;4.18;;;20.20;62.90;;;;;;5069244;28;20427;-72
2021/09/08 05:55:51;;;;;;;7.45;3.83;;;20.30;62.90;;;;;;5068564;28;20549;-73
2021/09/08 05:58:16;;;;;;;8.52;3.60;;;20.30;63.10;;;;;;5069867;28;20021;-72
2021/09/08 06:00:42;;;;;;;8.05;3.97;;;20.40;61.60;;;;;;5069742;28;20040;-73
2021/09/08 06:03:08;;;;;;;6.65;3.83;;;20.60;60.90;;;;;;5069807;28;20419;-73
2021/09/08 06:05:33;;;;;;;11.13;3.78;;;20.70;60.20;;;;;;5069645;28;20075;-73
2021/09/08 06:07:59;;;;;;;7.72;4.07;;;20.70;60.50;;;;;;5069641;28;20086;-72
2021/09/08 06:10:25;;;;;;;6.57;3.92;;;20.90;59.90;;;;;;5069726;28;20493;-73
2021/09/08 06:12:50;;;;;;;12.43;4.30;;;21.30;58.90;;;;;;5069628;28;20025;-71
2021/09/08 06:15:19;;;;;;;9.40;4.05;;;21.90;57.40;;;;;;5069579;28;20539;-73
2021/09/08 06:17:45;;;;;;;10.52;4.35;;;22.50;56.00;;;;;;5069618;28;20034;-73
2021/09/08 06:20:11;;;;;;;10.13;4.25;;;23.10;55.40;;;;;;5069532;28;20033;-72
2021/09/08 06:22:37;;;;;;;7.88;3.72;;;23.40;53.80;;;;;;5069508;28;20032;-71
2021/09/08 06:25:03;;;;;;;15.13;4.13;;;23.40;52.40;;;;;;5068149;28;20119;-71
2021/09/08 06:27:29;;;;;;;6.65;3.75;;;23.50;52.40;;;;;;5069183;28;20518;-73
2021/09/08 06:29:54;;;;;;;8.27;3.90;;;23.60;51.30;;;;;;5069356;28;20485;-73
2021/09/08 06:32:20;;;;;;;5.45;3.78;;;23.70;50.90;;;;;;5069375;28;20029;-72
2021/09/08 06:34:47;;;;;;;12.98;4.60;;;23.50;49.90;;;;;;5069274;28;20024;-73
2021/09/08 06:37:13;;;;;;;14.60;3.65;;;23.90;48.90;;;;;;5051370;28;20025;-73
2021/09/08 06:39:39;;;;;;;8.00;4.47;;;24.00;49.00;;;;;;5069109;28;20032;-73
2021/09/08 06:42:06;;;;;;;9.50;4.45;;;24.30;48.00;;;;;;5069019;28;20070;-71
2021/09/08 06:44:31;;;;;;;7.03;3.72;;;24.60;46.00;;;;;;5068961;28;20024;-70
2021/09/08 06:46:57;;;;;;;6.43;3.60;;;24.60;46.90;;;;;;5069063;28;20393;-70
2021/09/08 06:49:23;;;;;;;7.57;3.03;;;25.10;46.40;;;;;;5068946;28;20025;-71
2021/09/08 06:51:48;;;;;;;7.88;3.80;;;25.30;44.50;;;;;;5067663;28;20528;-71
2021/09/08 06:54:15;;;;;;;9.48;4.32;;;25.50;45.10;;;;;;5068889;28;20572;-71
2021/09/08 06:56:41;;;;;;;9.77;4.25;;;26.00;44.70;;;;;;5068623;28;20041;-72
2021/09/08 06:59:07;;;;;;;12.18;4.50;;;26.20;42.80;;;;;;5068912;28;20366;-71
2021/09/08 07:01:32;;;;;;;6.40;4.00;;;26.30;43.30;;;;;;5068686;28;20469;-71
2021/09/08 07:03:58;;;;;;;6.53;4.47;;;26.20;43.60;;;;;;5068540;28;20074;-71
2021/09/08 07:06:24;;;;;;;10.40;4.75;;;26.70;42.70;;;;;;5068925;28;20028;-71
2021/09/08 07:08:50;;;;;;;7.82;3.72;;;27.30;41.70;;;;;;5068957;28;20437;-71
2021/09/08 07:11:17;;;;;;;9.07;4.25;;;27.40;40.30;;;;;;5068434;28;20081;-71
2021/09/08 07:13:43;;;;;;;9.77;4.18;;;27.40;40.10;;;;;;5068600;28;20031;-72
2021/09/08 07:16:09;;;;;;;5.78;3.83;;;27.60;40.30;;;;;;5068515;28;20037;-71
2021/09/08 07:18:35;;;;;;;7.35;4.85;;;27.80;39.80;;;;;;5068457;28;20020;-71
2021/09/08 07:21:01;;;;;;;7.72;4.45;;;27.80;40.30;;;;;;5068565;28;20492;-71
2021/09/08 07:23:26;;;;;;;7.30;4.18;;;27.90;39.00;;;;;;5068209;28;20101;-70
2021/09/08 07:25:53;;;;;;;7.38;4.18;;;28.30;38.80;;;;;;5068501;28;20115;-71
2021/09/08 07:28:19;;;;;;;8.13;4.05;;;28.20;38.20;;;;;;5068554;28;20032;-71
2021/09/08 07:30:46;;;;;;;11.82;3.97;;;28.50;38.10;;;;;;5068392;28;20028;-72
2021/09/08 07:33:12;;;;;;;8.38;4.28;;;28.60;37.30;;;;;;5068312;28;20012;-71
2021/09/08 07:35:38;;;;;;;10.35;4.30;;;28.10;37.50;;;;;;5066960;28;20051;-71
2021/09/08 07:38:04;;;;;;;9.55;4.15;;;28.50;37.90;;;;;;5068415;28;20709;-69
2021/09/08 07:40:30;;;;;;;5.95;3.95;;;28.90;36.60;;;;;;5067027;28;20684;-71
2021/09/08 07:42:56;;;;;;;6.35;3.90;;;28.80;36.40;;;;;;5068255;28;20025;-70
2021/09/08 07:45:21;;;;;;;7.57;4.43;;;28.60;37.10;;;;;;5068499;28;20071;-71
2021/09/08 07:47:47;;;;;;;11.20;4.30;;;28.70;36.80;;;;;;5068325;28;20482;-70
2021/09/08 07:50:13;;;;;;;10.63;3.90;;;29.20;36.40;;;;;;5068390;28;20032;-70
2021/09/08 07:52:38;;;;;;;23.90;4.57;;;29.50;35.30;;;;;;5066991;28;20041;-71
2021/09/08 07:55:05;;;;;;;7.57;4.53;;;29.70;35.20;;;;;;5066852;28;20045;-70
2021/09/08 07:57:30;;;;;;;6.20;4.30;;;30.10;33.70;;;;;;5067912;28;20055;-71
2021/09/08 07:59:56;;;;;;;6.88;4.40;;;30.10;34.40;;;;;;5068231;28;20493;-71
2021/09/08 08:02:22;;;;;;;8.15;4.00;;;30.50;34.00;;;;;;5066943;28;20425;-71
2021/09/08 08:04:48;;;;;;;6.97;4.50;;;30.90;33.60;;;;;;5068001;28;20117;-72
2021/09/08 08:07:13;;;;;;;9.02;5.03;;;30.80;33.20;;;;;;5067894;28;20076;-71
2021/09/08 08:09:42;;;;;;;11.02;4.90;;;30.90;33.00;;;;;;5067997;28;20486;-71
2021/09/08 08:12:09;;;;;;;11.88;4.47;;;30.80;33.30;;;;;;5067978;28;20033;-71
2021/09/08 08:14:35;;;;;;;6.63;4.70;;;30.60;32.80;;;;;;5068070;28;20524;-71
2021/09/08 08:17:01;;;;;;;6.65;3.88;;;31.30;32.10;;;;;;5070782;28;20036;-71
2021/09/08 08:19:27;;;;;;;8.98;4.75;;;31.30;32.20;;;;;;5071483;28;20421;-71
2021/09/08 08:21:52;;;;;;;10.63;5.05;;;31.30;32.10;;;;;;5071829;28;20032;-71
2021/09/08 08:24:18;;;;;;;15.18;4.18;;;31.00;33.30;;;;;;5071736;28;20058;-71
2021/09/08 08:26:43;;;;;;;12.07;4.43;;;31.20;32.70;;;;;;5070105;28;20025;-70
2021/09/08 08:29:09;;;;;;;8.98;4.38;;;31.00;32.30;;;;;;5070506;28;20024;-71
2021/09/08 08:31:35;;;;;;;12.02;4.40;;;31.10;32.90;;;;;;5071578;28;20029;-71
2021/09/08 08:34:00;;;;;;;9.52;4.60;;;31.10;32.70;;;;;;5071689;28;20047;-70
2021/09/08 08:36:26;;;;;;;5.70;4.03;;;30.80;33.70;;;;;;5070579;28;20425;-71
2021/09/08 08:38:52;;;;;;;9.77;4.55;;;30.80;33.70;;;;;;5070057;28;20541;-71
2021/09/08 08:41:18;;;;;;;10.98;4.65;;;30.60;33.40;;;;;;5070250;28;20036;-71
2021/09/08 08:43:44;;;;;;;7.97;5.13;;;30.80;33.50;;;;;;5071409;28;20055;-71
2021/09/08 08:46:10;;;;;;;10.88;4.72;;;30.80;33.20;;;;;;5071429;28;20093;-71
2021/09/08 08:48:36;;;;;;;15.85;5.53;;;30.80;33.60;;;;;;5071378;28;20036;-70
2021/09/08 08:51:02;;;;;;;12.50;5.38;;;30.60;32.90;;;;;;5071284;28;20024;-71
2021/09/08 08:53:28;;;;;;;14.20;5.57;;;30.50;33.70;;;;;;5069551;28;20242;-71
2021/09/08 08:55:53;;;;;;;21.33;6.13;;;30.20;33.80;;;;;;5070913;28;20053;-71
2021/09/08 08:58:19;;;;;;;9.98;4.65;;;30.00;35.20;;;;;;5071047;28;20069;-71
2021/09/08 09:00:44;;;;;;;9.00;4.93;;;30.40;34.50;;;;;;5071184;28;20040;-70
2021/09/08 09:03:24;;;;;;;15.18;5.88;;;30.20;34.60;;;;;;5071020;28;20021;-71
2021/09/08 09:06:02;;;;;;;19.50;5.38;;;30.50;35.10;;;;;;5069690;28;20068;-71
2021/09/08 09:08:32;;;;;;;16.25;5.10;;;30.80;34.30;;;;;;5070940;28;20025;-71
2021/09/08 09:10:58;;;;;;;16.85;6.10;;;31.00;33.80;;;;;;5071250;28;20037;-71
2021/09/08 09:13:31;;;;;;;8.52;4.88;;;31.50;32.90;;;;;;5070698;28;20024;-71
2021/09/08 09:16:08;;;;;;;15.82;5.57;;;31.50;31.70;;;;;;5070792;28;20119;-71
2021/09/08 09:18:44;;;;;;;14.27;5.18;;;31.50;32.00;;;;;;5070640;28;20139;-71
2021/09/08 09:21:12;;;;;;;7.13;4.75;;;32.00;32.70;;;;;;5070791;28;20082;-71
2021/09/08 09:23:46;;;;;;;14.50;4.75;;;32.40;32.20;;;;;;5070605;28;20020;-70
2021/09/08 09:26:11;;;;;;;10.50;4.63;;;32.40;30.10;;;;;;5070709;28;20035;-71
2021/09/08 09:28:43;;;;;;;13.77;5.25;;;31.90;30.60;;;;;;5069265;28;20032;-71
2021/09/08 09:31:18;;;;;;;13.05;4.90;;;31.70;31.20;;;;;;5069341;28;20070;-71
2021/09/08 09:33:55;;;;;;;12.40;4.80;;;32.00;31.30;;;;;;5070524;28;20039;-71
2021/09/08 09:36:27;;;;;;;10.73;4.43;;;32.10;31.90;;;;;;5070511;28;20024;-71
2021/09/08 09:38:54;;;;;;;13.25;5.32;;;31.70;31.90;;;;;;5070257;28;20075;-70
2021/09/08 09:41:32;;;;;;;12.30;4.55;;;31.60;31.70;;;;;;5070202;28;20060;-71
2021/09/08 09:44:16;;;;;;;15.32;5.05;;;31.40;32.50;;;;;;5070313;28;20055;-70
2021/09/08 09:46:45;;;;;;;10.68;4.57;;;31.20;32.30;;;;;;5068787;28;20028;-71
2021/09/08 09:49:13;;;;;;;10.45;5.05;;;31.30;32.50;;;;;;5070286;28;20592;-69
2021/09/08 09:51:39;;;;;;;9.02;5.07;;;31.70;32.10;;;;;;5070216;28;20517;-70
2021/09/08 09:54:05;;;;;;;14.70;5.43;;;31.90;32.10;;;;;;5069976;28;20033;-71
2021/09/08 09:56:32;;;;;;;17.48;6.10;;;32.10;31.60;;;;;;5068613;28;20079;-71
2021/09/08 09:58:58;;;;;;;11.90;4.60;;;32.30;30.50;;;;;;5069996;28;20024;-72
2021/09/08 10:01:24;;;;;;;9.13;4.72;;;31.60;31.10;;;;;;5069834;28;20042;-70
2021/09/08 10:03:50;;;;;;;14.95;5.45;;;31.90;31.60;;;;;;5069980;28;20035;-71
2021/09/08 10:06:17;;;;;;;10.75;4.45;;;32.30;31.20;;;;;;5069992;28;20039;-70
2021/09/08 10:08:58;;;;;;;10.10;4.65;;;32.50;30.70;;;;;;5069698;28;20064;-71
2021/09/08 10:11:31;;;;;;;12.73;5.43;;;32.70;30.20;;;;;;5069720;28;20489;-71
2021/09/08 10:14:07;;;;;;;13.63;4.35;;;32.80;30.10;;;;;;5069987;28;20485;-70
2021/09/08 10:16:35;;;;;;;7.68;4.45;;;33.20;30.00;;;;;;5069635;28;20024;-71
2021/09/08 10:19:06;;;;;;;12.50;4.85;;;33.40;29.80;;;;;;5069452;28;20078;-71
2021/09/08 10:21:32;;;;;;;13.00;4.28;;;33.40;29.60;;;;;;5069468;28;20103;-70
2021/09/08 10:24:01;;;;;;;15.70;4.30;;;33.10;29.80;;;;;;5069314;28;20108;-71
2021/09/08 10:26:28;;;;;;;10.43;4.10;;;32.60;30.10;;;;;;5069547;28;20025;-70
2021/09/08 10:29:04;;;;;;;8.32;3.97;;;32.00;30.00;;;;;;5069293;28;20074;-70
2021/09/08 10:31:30;;;;;;;;;;;31.50;30.20;;;;;;5069683;28;20421;-69
2021/09/08 10:33:58;;;;;;;;;;;30.80;30.90;;;;;;5069874;28;20020;-72
2021/09/08 10:36:25;;;;;;;12.25;5.30;;;30.40;31.40;;;;;;5068054;28;19915;-72
2021/09/08 10:39:10;;;;;;;5.80;4.15;;;29.90;32.30;;;;;;5067584;28;20037;-70
2021/09/08 10:41:47;;;;;;;10.05;4.07;;;29.10;31.20;;;;;;5069239;28;20043;-70
2021/09/08 10:44:17;;;;;;;7.15;3.75;;;28.50;32.40;;;;;;5069095;28;20028;-70
2021/09/08 10:46:51;;;;;;;8.52;4.10;;;28.00;32.50;;;;;;5069197;28;20483;-70
2021/09/08 10:49:42;;;;;;;13.20;4.00;;;27.90;33.10;;;;;;5068904;28;20028;-70
2021/09/08 10:52:09;;;;;;;6.35;4.35;;;27.80;33.50;;;;;;5069215;28;20024;-70
2021/09/08 10:54:54;;;;;;;9.13;4.45;;;27.80;34.50;;;;;;5068906;28;20043;-70
2021/09/08 10:57:44;;;;;;;10.73;4.15;;;27.80;34.70;;;;;;5068852;28;20040;-69
2021/09/08 11:00:12;;;;;;;12.77;4.18;;;27.70;34.80;;;;;;5068853;28;20090;-70
2021/09/08 11:02:44;;;;;;;8.30;3.75;;;27.50;34.80;;;;;;5068733;28;20043;-69
2021/09/08 11:05:11;;;;;;;8.05;4.10;;;27.60;34.40;;;;;;5068713;28;20059;-69
2021/09/08 11:07:46;;;;;;;15.98;4.35;;;27.30;34.70;;;;;;5068583;28;20024;-70
2021/09/08 11:10:13;;;;;;;7.82;4.35;;;27.30;35.40;;;;;;5068606;28;20802;-70
2021/09/08 11:13:00;;;;;;;8.43;4.57;;;27.20;35.10;;;;;;5067268;28;20071;-70
2021/09/08 11:15:36;;;;;;;7.18;4.45;;;27.20;36.20;;;;;;5068265;28;20039;-70
2021/09/08 11:18:06;;;;;;;10.68;4.35;;;27.20;35.60;;;;;;5068624;28;20038;-71
2021/09/08 11:20:32;;;;;;;9.38;4.45;;;27.20;34.70;;;;;;5068663;28;20124;-72
2021/09/08 11:23:04;;;;;;;11.00;4.40;;;26.80;35.50;;;;;;5068624;28;20116;-70
2021/09/08 11:25:33;;;;;;;10.10;4.47;;;26.50;35.80;;;;;;5068306;28;20041;-69
2021/09/08 11:28:00;;;;;;;14.77;4.38;;;26.30;35.40;;;;;;5068323;28;20084;-70
2021/09/08 11:30:38;;;;;;;11.80;3.92;;;26.40;36.10;;;;;;5068521;28;20048;-70
2021/09/08 11:33:09;;;;;;;15.23;4.57;;;26.40;36.50;;;;;;5068504;28;20020;-69
2021/09/08 11:35:43;;;;;;;6.70;4.18;;;26.50;35.90;;;;;;5068241;28;20141;-70
2021/09/08 11:38:30;;;;;;;7.75;4.25;;;26.40;36.00;;;;;;5067041;28;20170;-69
2021/09/08 11:40:58;;;;;;;11.30;4.80;;;26.40;36.70;;;;;;5068182;28;20089;-72
2021/09/08 11:43:32;;;;;;;9.75;3.85;;;26.50;37.00;;;;;;5067096;28;20056;-70
2021/09/08 11:46:16;;;;;;;12.50;4.80;;;26.30;35.90;;;;;;5068326;28;20135;-70
2021/09/08 11:48:43;;;;;;;8.50;4.57;;;26.30;36.70;;;;;;5068376;28;20452;-69
2021/09/08 11:51:11;;;;;;;8.60;4.43;;;26.40;36.70;;;;;;5071135;28;20033;-71
2021/09/08 11:53:37;;;;;;;5.40;4.05;;;26.50;36.60;;;;;;5072421;28;20534;-70
2021/09/08 11:56:19;;;;;;;12.10;4.25;;;26.30;36.70;;;;;;5072176;28;20044;-69
2021/09/08 11:58:59;;;;;;;7.72;4.45;;;26.40;37.00;;;;;;5072226;28;20781;-70
2021/09/08 12:01:30;;;;;;;8.80;4.40;;;26.50;36.20;;;;;;5072092;28;20051;-70
2021/09/08 12:03:58;;;;;;;10.23;4.68;;;26.60;35.90;;;;;;5072113;28;20047;-69
2021/09/08 12:06:28;;;;;;;9.35;4.75;;;26.50;36.60;;;;;;5072351;28;20644;-70
2021/09/08 12:08:55;;;;;;;13.90;4.28;;;26.50;35.90;;;;;;5070694;28;20020;-71
2021/09/08 12:11:34;;;;;;;7.93;4.32;;;26.30;36.70;;;;;;5071987;28;20100;-71
2021/09/08 12:14:22;;;;;;;9.30;4.22;;;26.40;35.90;;;;;;5072065;28;20017;-71
2021/09/08 12:16:57;;;;;;;7.75;4.38;;;26.40;35.50;;;;;;5072058;28;20485;-70
2021/09/08 12:19:35;;;;;;;11.60;4.82;;;26.40;35.90;;;;;;5071844;28;20504;-69
2021/09/08 12:22:14;;;;;;;7.82;3.63;;;26.50;35.00;;;;;;5071813;28;20559;-70
2021/09/08 12:24:50;;;;;;;8.27;4.57;;;26.40;35.40;;;;;;5070593;28;20077;-69
2021/09/08 12:27:32;;;;;;;9.05;3.50;;;26.60;34.00;;;;;;5071737;28;20031;-70
2021/09/08 12:30:02;;;;;;;6.22;3.55;;;26.40;34.10;;;;;;5071936;28;20031;-69
2021/09/08 12:33:04;;;;;;;6.28;3.72;;;26.50;33.90;;;;;;5070373;28;20222;-70
2021/09/08 12:35:53;;;;;;;7.45;3.83;;;26.50;32.90;;;;;;5071486;28;20067;-69
2021/09/08 12:38:28;;;;;;;9.90;4.10;;;26.40;32.70;;;;;;5070210;28;20028;-70
2021/09/08 12:41:07;;;;;;;6.18;3.70;;;26.30;32.90;;;;;;5070219;28;20067;-70
2021/09/08 12:43:32;;;;;;;8.07;4.05;;;26.30;32.80;;;;;;5071260;28;20032;-69
2021/09/08 12:45:58;;;;;;;8.07;3.67;;;26.30;33.30;;;;;;5071503;28;20036;-70
2021/09/08 12:48:24;;;;;;;11.20;4.13;;;26.20;33.20;;;;;;5071352;28;20035;-69
2021/09/08 12:50:50;;;;;;;6.43;4.03;;;26.30;33.10;;;;;;5071269;28;20397;-69
2021/09/08 12:53:16;;;;;;;12.40;4.20;;;26.20;32.80;;;;;;5071070;28;20023;-70
2021/09/08 12:55:43;;;;;;;5.78;3.53;;;26.30;32.30;;;;;;5069792;28;20056;-70
2021/09/08 12:58:09;;;;;;;7.43;3.58;;;26.20;31.40;;;;;;5070009;28;20520;-70